Terminal Aerodrome Forecast
Issued by NWS

Home | Current Version | Previous Version | Text Only | Print | Product List | Glossary On
Versions: 1 2 3 4 5 6 7 8 9 10 11 12 13 14 15 16 17 18 19 20
654
FTPA31 PHFO 220048 AAA
TAFHNY
TAF AMD
PHNY 220048Z 2201/2224 05012KT P6SM BKN025 OVC045
      TEMPO 2200/2202 FEW030 BKN050
     FM220600 05009KT P6SM SCT025 BKN045
     FM221200 VRB03KT P6SM FEW025 SCT045=

USA.gov is the U.S. government's official web portal to all federal, state and local government web resources and services.